createdAt,value
2023-04-29T00:03:35.132Z,3.22
2023-04-29T00:08:38.120Z,3.38
2023-04-29T00:13:41.230Z,3.80
2023-04-29T00:18:44.059Z,4.90
2023-04-29T00:23:47.034Z,5.25
2023-04-29T00:28:49.293Z,4.72
2023-04-29T00:33:51.661Z,4.30
2023-04-29T00:38:54.088Z,3.75
2023-04-29T00:43:57.522Z,3.70
2023-04-29T00:49:00.579Z,3.58
2023-04-29T00:54:05.227Z,3.22
2023-04-29T00:59:10.376Z,3.42
2023-04-29T01:04:12.895Z,4.00
2023-04-29T01:09:51.181Z,4.15
2023-04-29T01:15:06.905Z,4.18
2023-04-29T01:20:10.728Z,3.80
2023-04-29T01:25:13.387Z,3.88
2023-04-29T01:31:01.233Z,5.00
2023-04-29T01:36:25.062Z,5.63
2023-04-29T01:46:44.754Z,6.28
2023-04-29T01:51:47.200Z,9.60
2023-04-29T01:56:52.289Z,11.20
2023-04-29T02:02:02.464Z,10.23
2023-04-29T02:07:06.627Z,10.77
2023-04-29T02:12:09.423Z,9.75
2023-04-29T02:17:12.204Z,7.68
2023-04-29T02:22:21.196Z,7.35
2023-04-29T02:27:23.504Z,8.57
2023-04-29T02:32:27.791Z,8.73
2023-04-29T02:37:30.656Z,7.95
2023-04-29T02:42:32.993Z,6.63
2023-04-29T02:47:37.525Z,11.80
2023-04-29T02:52:42.060Z,6.55
2023-04-29T02:57:46.212Z,4.60
2023-04-29T03:02:49.297Z,4.22
2023-04-29T03:07:52.807Z,3.25
2023-04-29T03:12:55.668Z,3.13
2023-04-29T03:17:59.955Z,4.13
2023-04-29T03:28:07.742Z,4.78
2023-04-29T03:33:11.985Z,6.00
2023-04-29T03:38:15.195Z,6.63
2023-04-29T03:43:20.206Z,5.85
2023-04-29T03:48:23.389Z,6.68
2023-04-29T03:53:27.623Z,7.85
2023-04-29T03:58:30.750Z,7.20
2023-04-29T04:03:33.747Z,7.50
2023-04-29T04:08:36.741Z,7.85
2023-04-29T04:13:45.498Z,5.75
2023-04-29T04:18:48.370Z,8.30
2023-04-29T04:23:52.164Z,7.72
2023-04-29T04:28:57.988Z,11.35
2023-04-29T04:34:30.586Z,8.07
2023-04-29T04:39:37.237Z,5.32
2023-04-29T04:44:40.628Z,4.00
2023-04-29T04:49:46.629Z,3.22
2023-04-29T04:54:49.247Z,3.30
2023-04-29T04:59:57.554Z,3.28
2023-04-29T05:05:00.267Z,3.30
2023-04-29T05:10:09.378Z,3.65
2023-04-29T05:15:20.459Z,3.50
2023-04-29T05:20:26.509Z,3.63
2023-04-29T05:25:31.082Z,3.53
2023-04-29T05:30:34.937Z,3.40
2023-04-29T05:35:38.164Z,3.17
2023-04-29T05:40:44.240Z,3.25
2023-04-29T05:46:08.230Z,3.78
2023-04-29T05:51:11.683Z,4.90
2023-04-29T05:56:16.282Z,3.42
2023-04-29T06:01:21.038Z,3.75
2023-04-29T06:06:24.951Z,3.55
2023-04-29T06:11:47.457Z,3.25
2023-04-29T06:16:50.198Z,3.30
2023-04-29T06:21:52.827Z,3.25
2023-04-29T06:26:56.042Z,2.90
2023-04-29T06:32:07.172Z,3.63
2023-04-29T06:37:11.591Z,4.25
2023-04-29T06:42:41.275Z,4.55
2023-04-29T06:48:03.768Z,4.03
2023-04-29T06:53:23.406Z,4.45
2023-04-29T06:58:27.059Z,4.72
2023-04-29T07:03:32.789Z,5.28
2023-04-29T07:08:36.743Z,5.32
2023-04-29T07:13:41.620Z,4.90
2023-04-29T07:18:53.571Z,10.05
2023-04-29T07:23:57.270Z,5.07
2023-04-29T07:29:03.440Z,2.67
2023-04-29T07:34:08.853Z,2.65
2023-04-29T07:39:13.018Z,2.83
2023-04-29T07:44:16.973Z,2.78
2023-04-29T07:49:21.088Z,2.25
2023-04-29T07:54:24.340Z,2.88
2023-04-29T07:59:30.750Z,2.65
2023-04-29T08:04:35.020Z,3.60
2023-04-29T08:09:44.546Z,2.67
2023-04-29T08:14:50.972Z,2.10
2023-04-29T08:19:55.139Z,1.85
2023-04-29T08:24:58.360Z,2.72
2023-04-29T08:30:02.821Z,2.47
2023-04-29T08:35:09.553Z,2.72
2023-04-29T08:40:14.132Z,2.70
2023-04-29T08:45:21.173Z,2.25
2023-04-29T08:50:24.620Z,2.92
2023-04-29T08:55:28.479Z,2.63
2023-04-29T09:00:33.167Z,2.17
2023-04-29T09:05:38.528Z,2.30
2023-04-29T09:10:44.003Z,3.33
2023-04-29T09:15:47.174Z,3.40
2023-04-29T09:20:51.028Z,2.30
2023-04-29T09:25:59.250Z,2.35
2023-04-29T09:31:09.197Z,2.58
2023-04-29T09:36:12.032Z,2.90
2023-04-29T09:41:19.546Z,2.92
2023-04-29T09:46:23.017Z,3.67
2023-04-29T09:51:25.655Z,2.15
2023-04-29T09:56:33.697Z,2.90
2023-04-29T10:01:36.965Z,2.65
2023-04-29T10:06:41.635Z,2.28
2023-04-29T10:11:50.951Z,2.15
2023-04-29T10:17:15.145Z,2.42
2023-04-29T10:22:26.633Z,3.85
2023-04-29T10:27:33.697Z,3.30
2023-04-29T10:32:50.279Z,3.20
2023-04-29T10:38:00.305Z,2.60
2023-04-29T10:43:09.863Z,3.22
2023-04-29T10:48:14.361Z,3.65
2023-04-29T10:53:22.656Z,2.67
2023-04-29T10:58:39.193Z,2.72
2023-04-29T11:03:59.006Z,3.00
2023-04-29T11:09:14.881Z,3.33
2023-04-29T11:14:27.064Z,2.83
2023-04-29T11:19:41.434Z,6.20
2023-04-29T11:24:52.373Z,3.28
2023-04-29T11:29:58.979Z,2.97
2023-04-29T11:35:13.236Z,2.33
2023-04-29T11:40:17.276Z,6.50
2023-04-29T11:45:20.276Z,4.60
2023-04-29T11:50:23.743Z,3.20
2023-04-29T11:55:26.905Z,3.42
2023-04-29T12:00:31.726Z,3.45
2023-04-29T12:05:34.877Z,3.33
2023-04-29T12:10:37.809Z,3.78
2023-04-29T12:15:40.584Z,3.20
2023-04-29T12:20:44.294Z,3.17
2023-04-29T12:25:56.166Z,3.22
2023-04-29T12:31:00.161Z,3.10
2023-04-29T12:36:02.531Z,3.25
2023-04-29T12:41:08.030Z,2.88
2023-04-29T12:46:13.185Z,2.97
2023-04-29T12:51:18.344Z,3.85
2023-04-29T12:56:21.166Z,3.33
2023-04-29T13:01:24.823Z,3.53
2023-04-29T13:06:27.932Z,4.00
2023-04-29T13:11:34.432Z,3.33
2023-04-29T13:16:38.373Z,3.63
2023-04-29T13:21:40.814Z,3.50
2023-04-29T13:26:43.635Z,3.80
2023-04-29T13:31:46.515Z,3.53
2023-04-29T13:36:49.482Z,3.97
2023-04-29T13:41:54.446Z,4.47
2023-04-29T13:47:02.075Z,4.38
2023-04-29T13:53:00.863Z,4.38
2023-04-29T13:58:13.269Z,5.57
2023-04-29T14:07:57.482Z,4.43
2023-04-29T14:13:00.286Z,4.93
2023-04-29T14:18:02.968Z,4.35
2023-04-29T14:23:06.409Z,4.38
2023-04-29T14:28:09.279Z,4.75
2023-04-29T14:33:13.599Z,3.60
2023-04-29T14:38:15.918Z,3.65
2023-04-29T14:43:18.186Z,4.10
2023-04-29T14:48:20.588Z,3.92
2023-04-29T14:53:23.975Z,4.18
2023-04-29T14:58:27.009Z,4.18
2023-04-29T15:03:29.418Z,4.07
2023-04-29T15:08:32.858Z,3.75
2023-04-29T15:13:37.376Z,3.72
2023-04-29T15:18:40.312Z,3.60
2023-04-29T15:23:43.802Z,3.95
2023-04-29T15:28:46.879Z,3.33
2023-04-29T15:33:53.942Z,3.90
2023-04-29T15:38:57.216Z,4.65
2023-04-29T15:43:59.830Z,4.82
2023-04-29T15:49:03.436Z,5.20
2023-04-29T15:54:08.027Z,5.22
2023-04-29T16:04:15.230Z,5.65
2023-04-29T16:09:18.012Z,6.20
2023-04-29T16:14:20.803Z,5.65
2023-04-29T16:19:25.042Z,7.35
2023-04-29T16:24:27.871Z,7.85
2023-04-29T16:29:31.838Z,12.38
2023-04-29T16:34:34.157Z,11.88
2023-04-29T16:39:37.062Z,8.77
2023-04-29T16:44:39.412Z,10.02
2023-04-29T16:49:42.682Z,8.02
2023-04-29T16:54:45.565Z,9.27
2023-04-29T16:59:48.981Z,10.57
2023-04-29T17:04:52.477Z,13.52
2023-04-29T17:09:55.691Z,11.90
2023-04-29T17:15:00.230Z,15.60
2023-04-29T17:20:02.628Z,17.67
2023-04-29T17:25:08.932Z,17.45
2023-04-29T17:30:13.090Z,14.13
2023-04-29T17:35:16.863Z,11.18
2023-04-29T17:40:19.334Z,10.77
2023-04-29T17:45:23.056Z,11.00
2023-04-29T17:50:25.912Z,12.52
2023-04-29T17:55:31.511Z,13.95
2023-04-29T18:00:35.489Z,14.68
2023-04-29T18:05:38.119Z,16.23
2023-04-29T18:10:40.837Z,17.77
2023-04-29T18:15:43.339Z,16.38
2023-04-29T18:20:45.879Z,15.60
2023-04-29T18:25:49.066Z,13.65
2023-04-29T18:30:52.015Z,13.20
2023-04-29T18:35:54.931Z,14.55
2023-04-29T18:40:58.346Z,15.60
2023-04-29T18:46:00.964Z,14.02
2023-04-29T18:51:04.535Z,12.43
2023-04-29T18:56:07.712Z,12.60
2023-04-29T19:01:10.221Z,7.75
2023-04-29T19:06:12.848Z,6.05
2023-04-29T19:11:15.327Z,5.95
2023-04-29T19:16:17.713Z,5.03
2023-04-29T19:21:21.018Z,5.00
2023-04-29T19:26:23.474Z,4.25
2023-04-29T19:31:25.943Z,4.50
2023-04-29T19:36:29.008Z,4.15
2023-04-29T19:41:34.613Z,3.20
2023-04-29T19:46:38.323Z,2.88
2023-04-29T19:51:41.534Z,2.70
2023-04-29T19:56:44.015Z,4.40
2023-04-29T20:01:47.621Z,2.60
2023-04-29T20:06:50.643Z,3.20
2023-04-29T20:11:53.316Z,3.30
2023-04-29T20:16:59.671Z,3.38
2023-04-29T20:22:03.010Z,3.63
2023-04-29T20:27:05.535Z,3.50
2023-04-29T20:32:07.933Z,3.95
2023-04-29T20:37:11.519Z,4.18
2023-04-29T20:42:14.085Z,4.00
2023-04-29T20:47:16.413Z,5.00
2023-04-29T20:52:18.744Z,5.15
2023-04-29T20:57:21.824Z,4.65
2023-04-29T21:02:25.858Z,4.68
2023-04-29T21:07:28.237Z,5.10
2023-04-29T21:12:30.826Z,5.30
2023-04-29T21:17:33.964Z,5.57
2023-04-29T21:22:36.987Z,5.13
2023-04-29T21:27:40.788Z,5.50
2023-04-29T21:32:44.494Z,5.63
2023-04-29T21:37:47.348Z,6.20
2023-04-29T21:42:51.258Z,6.35
2023-04-29T21:47:55.681Z,6.57
2023-04-29T21:52:58.066Z,6.72
2023-04-29T21:58:01.846Z,6.60
2023-04-29T22:03:08.975Z,6.93
2023-04-29T22:08:11.917Z,7.78
2023-04-29T22:13:14.764Z,7.60
2023-04-29T22:18:17.312Z,8.00
2023-04-29T22:23:21.005Z,8.23
2023-04-29T22:28:23.659Z,9.52
2023-04-29T22:33:26.120Z,9.50
2023-04-29T22:38:29.699Z,10.63
2023-04-29T22:43:32.138Z,9.90
2023-04-29T22:48:34.403Z,10.60
2023-04-29T22:53:36.674Z,12.68
2023-04-29T22:58:39.740Z,11.63
2023-04-29T23:03:42.128Z,13.50
2023-04-29T23:08:45.011Z,14.18
2023-04-29T23:13:47.994Z,14.38
2023-04-29T23:18:51.398Z,12.73
2023-04-29T23:23:54.439Z,13.00
2023-04-29T23:28:57.367Z,12.13
2023-04-29T23:34:00.849Z,12.90
2023-04-29T23:39:03.620Z,11.75
2023-04-29T23:44:06.490Z,11.40
2023-04-29T23:49:11.212Z,11.35
2023-04-29T23:54:13.477Z,11.90
2023-04-29T23:59:16.128Z,12.40
